Погода Пензана неделю

Пензенская область, Россия

25 - 31 мая
  • 25мая
    Сегодня
    +9°
    +22°
    Ясно и безоблачно
    ВремяПогодаТемператураВлажностьДавлениеВетер, м/сВероятность осадков
    00:00Ясно и безоблачно+10°C58 %760 мм0.8 м/с2 %
    03:00Практически безоблачно+8°C77 %760 мм2.0 м/с2 %
    06:00Ясно и безоблачно+10°C60 %760 мм2.5 м/с2 %
    09:00Ясно и безоблачно+17°C37 %760 мм2.9 м/с2 %
    12:00Ясно и безоблачно+20°C33 %759 мм2.4 м/с2 %
    15:00Ясно и безоблачно+22°C33 %758 мм2.7 м/с2 %
    18:00Ясно и безоблачно+21°C41 %757 мм2.2 м/с2 %
    21:00Ясно и безоблачно+15°C54 %756 мм2.3 м/с2 %
  • 26мая
    Воскресенье
    +10°
    +24°
    Ясно и безоблачно
    ВремяПогодаТемператураВлажностьДавлениеВетер, м/сВероятность осадков
    00:00Ясно и безоблачно+11°C66 %756 мм2.2 м/с2 %
    03:00Ясно и безоблачно+9°C73 %755 мм2.1 м/с2 %
    06:00Ясно и безоблачно+12°C65 %755 мм2.9 м/с2 %
    09:00Ясно и безоблачно+19°C43 %754 мм3.6 м/с2 %
    12:00Ясно и безоблачно+22°C35 %754 мм4.1 м/с2 %
    15:00Ясно и безоблачно+24°C33 %753 мм4.2 м/с2 %
    18:00Ясно и безоблачно+22°C41 %752 мм2.6 м/с3 %
    21:00Облачно с прояснениями+17°C74 %753 мм2.7 м/с10 %
  • 27мая
    Понедельник
    +8°
    +20°
    Ясно и безоблачно
    ВремяПогодаТемператураВлажностьДавлениеВетер, м/сВероятность осадков
    00:00Практически безоблачно+14°C87 %754 мм3.1 м/с8 %
    03:00Ясно и безоблачно+11°C96 %755 мм2.7 м/с4 %
    06:00Ясно и безоблачно+12°C82 %756 мм3.1 м/с4 %
    09:00Ясно и безоблачно+16°C54 %757 мм3.3 м/с2 %
    12:00Ясно и безоблачно+19°C42 %757 мм3.2 м/с2 %
    15:00Ясно и безоблачно+20°C37 %757 мм3.1 м/с2 %
    18:00Ясно и безоблачно+19°C39 %756 мм2.6 м/с2 %
    21:00Ясно и безоблачно+14°C62 %757 мм2.0 м/с2 %
  • 28мая
    Вторник
    +10°
    +23°
    Ясно и безоблачно
    ВремяПогодаТемператураВлажностьДавлениеВетер, м/сВероятность осадков
    00:00Ясно и безоблачно+11°C72 %757 мм2.2 м/с2 %
    03:00Ясно и безоблачно+9°C72 %757 мм2.4 м/с2 %
    06:00Ясно и безоблачно+11°C65 %757 мм1.8 м/с2 %
    09:00Ясно и безоблачно+17°C42 %757 мм1.6 м/с2 %
    12:00Ясно и безоблачно+20°C37 %757 мм0.8 м/с2 %
    15:00Ясно и безоблачно+22°C36 %755 мм0.6 м/с2 %
    18:00Ясно и безоблачно+22°C38 %754 мм0.8 м/с2 %
    21:00Ясно и безоблачно+17°C59 %754 мм2.2 м/с2 %
  • 29мая
    Среда
    +12°
    +25°
    Ясно и безоблачно
    ВремяПогодаТемператураВлажностьДавлениеВетер, м/сВероятность осадков
    00:00Ясно и безоблачно+13°C71 %753 мм2.4 м/с2 %
    03:00Ясно и безоблачно+12°C74 %753 мм1.7 м/с2 %
    06:00Ясно и безоблачно+14°C69 %752 мм1.3 м/с2 %
    09:00Ясно и безоблачно+21°C39 %752 мм1.1 м/с2 %
    12:00Ясно и безоблачно+24°C36 %752 мм0.7 м/с2 %
    15:00Ясно и безоблачно+25°C35 %751 мм0.4 м/с3 %
    18:00Ясно и безоблачно+25°C40 %750 мм0.7 м/с2 %
    21:00Ясно и безоблачно+19°C62 %750 мм2.1 м/с2 %
Мы используем cookies
Соглашаюсь